Time;durP1;ratioP1;P1;durP2;ratioP2;P2;SDS_P1;SDS_P2;PMS_P1;PMS_P2;Temp;Humidity;BMP_temperature;BMP_pressure;BME280_temperature;BME280_humidity;BME280_pressure;Samples;Min_cycle;Max_cycle;Signal;HPM_P1;HPM_P2
2021/12/17 00:00:58;;;;;;;13.00;9.87;;;;;;;;;;5043105;28;20443;-50
2021/12/17 00:03:34;;;;;;;12.43;9.77;;;;;;;;;;5032503;28;20804;-48
2021/12/17 00:08:39;;;;;;;14.63;8.90;;;;;;;;;;5011449;28;20447;-49
2021/12/17 00:11:05;;;;;;;12.43;8.60;;;;;;;;;;5056062;28;20450;-50
2021/12/17 00:13:31;;;;;;;18.03;10.10;;;;;;;;;;5012196;28;20524;-48
2021/12/17 00:15:57;;;;;;;14.87;8.80;;;;;;;;;;5041132;28;20437;-50
2021/12/17 00:18:35;;;;;;;12.40;8.73;;;;;;;;;;4998785;28;20444;-49
2021/12/17 00:43:53;;;;;;;15.20;10.07;;;;;;;;;;5023507;28;20454;-49
2021/12/17 00:48:41;;;;;;;14.00;9.20;;;;;;;;;;5004976;28;20446;-48
2021/12/17 00:51:48;;;;;;;10.10;7.87;;;;;;;;;;5038453;28;20450;-49
2021/12/17 00:54:07;;;;;;;16.63;9.63;;;;;;;;;;5016793;28;21029;-49
2021/12/17 00:56:33;;;;;;;15.90;9.20;;;;;;;;;;5038738;28;20440;-48
2021/12/17 00:58:59;;;;;;;13.30;9.30;;;;;;;;;;5032864;28;20435;-49
2021/12/17 01:02:08;;;;;;;15.40;10.10;;;;;;;;;;5036119;28;20443;-50
2021/12/17 01:04:39;;;;;;;15.53;10.03;;;;;;;;;;5032108;28;20450;-48
2021/12/17 01:07:05;;;;;;;14.60;9.90;;;;;;;;;;5034323;28;20450;-48
2021/12/17 01:09:31;;;;;;;17.37;10.73;;;;;;;;;;5035464;28;21489;-48
2021/12/17 01:12:11;;;;;;;18.43;10.37;;;;;;;;;;5031244;28;20462;-48
2021/12/17 01:14:40;;;;;;;14.10;10.80;;;;;;;;;;5035195;28;20459;-48
2021/12/17 01:17:13;;;;;;;10.50;8.33;;;;;;;;;;5037773;28;20434;-49
2021/12/17 01:25:35;;;;;;;16.23;12.63;;;;;;;;;;5042299;28;20825;-50
2021/12/17 01:36:27;;;;;;;14.53;9.67;;;;;;;;;;4984713;28;21472;-49
2021/12/17 01:43:55;;;;;;;15.60;9.57;;;;;;;;;;5013782;28;20454;-48
2021/12/17 01:46:28;;;;;;;15.67;10.93;;;;;;;;;;5046805;28;20456;-50
2021/12/17 01:49:18;;;;;;;17.50;11.07;;;;;;;;;;5041875;28;21322;-52
2021/12/17 01:59:51;;;;;;;15.57;10.20;;;;;;;;;;5035380;28;20925;-49
2021/12/17 02:02:18;;;;;;;16.63;11.53;;;;;;;;;;5038876;28;20462;-50
2021/12/17 02:04:44;;;;;;;23.57;10.73;;;;;;;;;;5011444;28;21046;-48
2021/12/17 02:07:10;;;;;;;14.23;9.57;;;;;;;;;;5027151;28;20664;-49
2021/12/17 02:31:29;;;;;;;13.40;9.57;;;;;;;;;;5037314;28;20450;-50
2021/12/17 02:33:56;;;;;;;14.20;9.63;;;;;;;;;;5008893;28;20434;-47
2021/12/17 02:36:26;;;;;;;18.93;10.23;;;;;;;;;;5038380;28;20942;-48
2021/12/17 02:38:54;;;;;;;18.50;11.70;;;;;;;;;;5011799;28;20438;-48
2021/12/17 02:46:49;;;;;;;12.33;9.47;;;;;;;;;;5042667;28;20457;-49
2021/12/17 02:49:15;;;;;;;15.30;10.27;;;;;;;;;;5035843;28;20437;-49
2021/12/17 02:51:42;;;;;;;14.67;10.10;;;;;;;;;;5038515;28;20550;-50
2021/12/17 02:54:09;;;;;;;17.50;10.53;;;;;;;;;;5005088;28;20443;-49
2021/12/17 02:56:35;;;;;;;16.00;10.03;;;;;;;;;;5033332;28;20570;-49
2021/12/17 02:59:31;;;;;;;14.20;10.47;;;;;;;;;;5021188;28;20477;-49
2021/12/17 03:01:58;;;;;;;19.77;11.60;;;;;;;;;;5051421;28;20431;-48
2021/12/17 03:04:25;;;;;;;18.50;11.60;;;;;;;;;;5034829;28;20511;-49
2021/12/17 03:06:51;;;;;;;16.30;11.70;;;;;;;;;;5042123;28;20515;-50
2021/12/17 03:12:08;;;;;;;15.80;11.10;;;;;;;;;;5042195;28;20821;-48
2021/12/17 03:14:42;;;;;;;15.47;10.80;;;;;;;;;;5006765;28;20619;-48
2021/12/17 03:17:15;;;;;;;16.83;10.93;;;;;;;;;;5041728;28;20821;-50
2021/12/17 03:25:06;;;;;;;15.07;10.50;;;;;;;;;;5037296;28;21054;-50
2021/12/17 03:27:34;;;;;;;15.60;11.13;;;;;;;;;;5037256;28;20969;-48
2021/12/17 03:30:00;;;;;;;13.70;9.67;;;;;;;;;;5036576;28;20557;-48
2021/12/17 03:32:26;;;;;;;16.53;9.57;;;;;;;;;;5037886;28;20574;-48
2021/12/17 03:34:51;;;;;;;15.80;9.80;;;;;;;;;;5004263;28;20711;-48
2021/12/17 03:37:18;;;;;;;16.57;10.47;;;;;;;;;;5040154;28;20481;-49
2021/12/17 03:39:44;;;;;;;14.10;9.80;;;;;;;;;;5029683;28;20796;-47
2021/12/17 03:42:10;;;;;;;14.77;8.80;;;;;;;;;;5038860;28;20485;-49
2021/12/17 03:44:36;;;;;;;17.87;11.33;;;;;;;;;;5015257;28;20432;-49
2021/12/17 03:47:03;;;;;;;13.90;10.70;;;;;;;;;;5039253;28;20481;-48
2021/12/17 03:49:29;;;;;;;13.67;9.70;;;;;;;;;;5010069;28;20994;-49
2021/12/17 03:52:05;;;;;;;15.20;10.57;;;;;;;;;;5043630;28;20498;-48
2021/12/17 03:54:33;;;;;;;21.10;11.40;;;;;;;;;;5012712;28;20533;-48
2021/12/17 03:57:00;;;;;;;13.20;10.07;;;;;;;;;;5044560;28;20998;-50
2021/12/17 03:59:26;;;;;;;15.07;11.53;;;;;;;;;;5036589;28;20572;-47
2021/12/17 04:01:52;;;;;;;15.47;10.77;;;;;;;;;;5043985;28;20537;-49
2021/12/17 04:04:18;;;;;;;16.73;11.63;;;;;;;;;;5007859;28;20439;-49
2021/12/17 04:06:44;;;;;;;16.00;12.10;;;;;;;;;;5038605;28;20576;-48
2021/12/17 04:09:10;;;;;;;17.00;11.03;;;;;;;;;;5002176;28;21162;-50
2021/12/17 04:11:38;;;;;;;16.33;10.33;;;;;;;;;;5040991;28;20431;-49
2021/12/17 04:14:04;;;;;;;17.17;11.60;;;;;;;;;;5009716;28;20502;-47
2021/12/17 04:16:32;;;;;;;17.80;12.50;;;;;;;;;;5038472;28;20431;-47
2021/12/17 04:18:58;;;;;;;20.17;11.20;;;;;;;;;;5009396;28;20442;-48
2021/12/17 04:21:24;;;;;;;15.93;10.70;;;;;;;;;;5039252;28;20584;-50
2021/12/17 04:23:51;;;;;;;15.20;11.67;;;;;;;;;;5037539;28;21121;-48
2021/12/17 04:26:17;;;;;;;16.93;12.17;;;;;;;;;;5038426;28;20439;-48
2021/12/17 04:28:46;;;;;;;15.40;11.07;;;;;;;;;;5010549;28;20469;-48
2021/12/17 04:31:12;;;;;;;19.60;10.10;;;;;;;;;;5041784;28;20522;-48
2021/12/17 04:33:40;;;;;;;23.23;12.20;;;;;;;;;;5015309;28;20569;-50
2021/12/17 04:36:06;;;;;;;19.17;10.30;;;;;;;;;;5035524;28;20437;-48
2021/12/17 04:38:32;;;;;;;17.70;10.80;;;;;;;;;;5033685;28;20849;-48
2021/12/17 04:41:21;;;;;;;17.17;11.27;;;;;;;;;;5037413;28;20427;-50
2021/12/17 04:44:05;;;;;;;12.63;10.17;;;;;;;;;;4994337;28;21108;-48
2021/12/17 04:46:38;;;;;;;18.10;11.40;;;;;;;;;;5036897;28;20511;-48
2021/12/17 04:59:44;;;;;;;15.60;10.60;;;;;;;;;;5041547;28;20443;-50
2021/12/17 05:02:10;;;;;;;17.27;11.93;;;;;;;;;;5041484;28;20441;-48
2021/12/17 05:04:37;;;;;;;14.53;10.40;;;;;;;;;;5015945;28;20500;-49
2021/12/17 05:07:03;;;;;;;21.10;11.23;;;;;;;;;;5042332;28;20446;-48
2021/12/17 05:09:45;;;;;;;19.37;11.97;;;;;;;;;;5021142;28;20513;-50
2021/12/17 05:20:28;;;;;;;15.70;11.57;;;;;;;;;;5031495;28;20503;-49
2021/12/17 05:22:58;;;;;;;13.43;10.90;;;;;;;;;;5004063;28;21094;-49
2021/12/17 05:25:26;;;;;;;19.57;12.27;;;;;;;;;;5037229;28;20584;-50
2021/12/17 05:27:55;;;;;;;15.63;11.67;;;;;;;;;;5029359;28;20459;-49
2021/12/17 05:30:21;;;;;;;13.90;10.63;;;;;;;;;;5036064;28;20520;-50
2021/12/17 05:32:47;;;;;;;16.80;10.77;;;;;;;;;;5033504;28;20476;-49
2021/12/17 05:35:13;;;;;;;20.07;11.87;;;;;;;;;;5040555;28;20449;-49
2021/12/17 05:37:39;;;;;;;16.90;12.60;;;;;;;;;;5039127;28;20855;-49
2021/12/17 05:40:05;;;;;;;17.53;12.80;;;;;;;;;;5037522;28;20418;-48
2021/12/17 05:42:34;;;;;;;20.70;13.83;;;;;;;;;;5036147;28;20450;-50
2021/12/17 05:45:08;;;;;;;16.30;11.20;;;;;;;;;;5028564;28;20784;-48
2021/12/17 05:47:34;;;;;;;21.80;13.80;;;;;;;;;;5019282;28;20430;-49
2021/12/17 05:50:01;;;;;;;18.27;12.43;;;;;;;;;;5022345;28;20453;-49
2021/12/17 05:52:27;;;;;;;17.10;11.20;;;;;;;;;;5033707;28;20470;-48
2021/12/17 05:55:14;;;;;;;16.13;12.13;;;;;;;;;;5023197;28;20476;-49
2021/12/17 05:57:44;;;;;;;15.70;12.10;;;;;;;;;;5041126;28;20442;-50
2021/12/17 06:00:12;;;;;;;16.50;11.27;;;;;;;;;;5035788;28;20500;-50
2021/12/17 06:02:39;;;;;;;15.60;12.33;;;;;;;;;;5041202;28;20435;-50
2021/12/17 06:05:19;;;;;;;19.30;12.50;;;;;;;;;;5026224;28;21072;-50
2021/12/17 06:07:45;;;;;;;20.33;12.20;;;;;;;;;;5043689;28;20446;-49
2021/12/17 06:10:11;;;;;;;15.10;12.07;;;;;;;;;;5036514;28;20552;-50
2021/12/17 06:12:38;;;;;;;14.33;10.87;;;;;;;;;;5038245;28;20592;-49
2021/12/17 06:15:04;;;;;;;17.57;12.67;;;;;;;;;;5017725;28;20542;-48
2021/12/17 06:17:30;;;;;;;17.20;11.27;;;;;;;;;;5036282;28;20447;-50
2021/12/17 06:20:38;;;;;;;14.97;10.80;;;;;;;;;;5019992;28;20676;-50
2021/12/17 06:23:09;;;;;;;13.73;9.93;;;;;;;;;;5041466;28;20434;-49
2021/12/17 06:25:35;;;;;;;11.93;8.80;;;;;;;;;;5011846;28;20670;-49
2021/12/17 06:28:01;;;;;;;14.80;11.43;;;;;;;;;;5044293;28;20769;-49
2021/12/17 06:30:27;;;;;;;13.73;9.60;;;;;;;;;;5039306;28;20447;-50
2021/12/17 06:32:53;;;;;;;12.70;9.30;;;;;;;;;;5045251;28;20466;-49
2021/12/17 06:35:28;;;;;;;13.53;9.17;;;;;;;;;;5021105;28;20894;-49
2021/12/17 06:37:55;;;;;;;11.77;9.47;;;;;;;;;;5048763;28;20441;-49
2021/12/17 06:40:21;;;;;;;14.90;10.13;;;;;;;;;;5057356;28;20443;-49
2021/12/17 06:42:47;;;;;;;13.40;9.00;;;;;;;;;;5046244;28;20436;-49
2021/12/17 06:45:21;;;;;;;10.97;9.40;;;;;;;;;;5047434;28;20418;-51
2021/12/17 06:47:54;;;;;;;12.73;8.97;;;;;;;;;;5048309;28;20439;-49
2021/12/17 07:10:37;;;;;;;15.93;9.93;;;;;;;;;;5015661;28;20449;-49
2021/12/17 07:21:29;;;;;;;12.97;8.87;;;;;;;;;;5033635;28;20551;-50
2021/12/17 07:40:08;;;;;;;9.77;7.40;;;;;;;;;;5049594;28;20450;-49
2021/12/17 07:42:34;;;;;;;17.10;9.10;;;;;;;;;;5023905;28;20442;-49
2021/12/17 07:45:00;;;;;;;10.67;8.00;;;;;;;;;;5062151;28;20528;-49
2021/12/17 07:47:28;;;;;;;9.43;7.50;;;;;;;;;;5032256;28;20438;-50
2021/12/17 07:49:54;;;;;;;12.83;7.60;;;;;;;;;;5041184;28;20442;-48
2021/12/17 07:52:20;;;;;;;16.17;10.87;;;;;;;;;;5039080;28;20471;-49
2021/12/17 07:54:47;;;;;;;10.00;6.90;;;;;;;;;;5044491;28;20481;-50
2021/12/17 07:57:13;;;;;;;14.90;8.50;;;;;;;;;;5039834;28;20443;-50
2021/12/17 07:59:40;;;;;;;10.30;8.20;;;;;;;;;;5043798;28;20480;-50
2021/12/17 08:02:28;;;;;;;10.67;7.37;;;;;;;;;;5041507;28;20465;-49
2021/12/17 08:04:54;;;;;;;14.60;9.30;;;;;;;;;;5025068;28;20438;-49
2021/12/17 08:07:32;;;;;;;11.33;7.70;;;;;;;;;;5042142;28;20913;-49
2021/12/17 08:10:01;;;;;;;11.40;8.57;;;;;;;;;;5025678;28;20447;-48
2021/12/17 08:12:28;;;;;;;10.40;7.37;;;;;;;;;;5031943;28;21002;-49
2021/12/17 08:14:54;;;;;;;8.73;6.63;;;;;;;;;;5019817;28;20446;-49
2021/12/17 08:26:00;;;;;;;8.13;6.50;;;;;;;;;;5040539;28;20911;-49
2021/12/17 08:28:17;;;;;;;7.43;6.37;;;;;;;;;;4990933;28;20533;-49
2021/12/17 08:30:44;;;;;;;7.90;5.90;;;;;;;;;;5041374;28;20946;-50
2021/12/17 08:33:10;;;;;;;6.57;5.63;;;;;;;;;;5013968;28;20979;-50
2021/12/17 08:35:36;;;;;;;9.60;5.90;;;;;;;;;;5038137;28;20451;-50
2021/12/17 08:38:04;;;;;;;8.43;6.70;;;;;;;;;;5011006;28;20909;-49
2021/12/17 08:40:31;;;;;;;6.97;5.73;;;;;;;;;;5040644;28;20457;-50
2021/12/17 08:42:57;;;;;;;9.80;6.63;;;;;;;;;;5018960;28;20529;-50
2021/12/17 08:45:24;;;;;;;6.93;5.33;;;;;;;;;;5038538;28;20535;-49
2021/12/17 08:47:50;;;;;;;6.60;5.83;;;;;;;;;;5033984;28;20516;-49
2021/12/17 08:50:35;;;;;;;7.37;5.23;;;;;;;;;;5046511;28;20559;-49
2021/12/17 08:53:02;;;;;;;8.77;6.00;;;;;;;;;;5024045;28;20508;-49
2021/12/17 08:55:28;;;;;;;7.27;6.57;;;;;;;;;;5041732;28;20519;-50
2021/12/17 08:57:54;;;;;;;8.00;5.80;;;;;;;;;;5019401;28;21002;-52
2021/12/17 09:00:21;;;;;;;13.73;6.97;;;;;;;;;;5007777;28;20441;-50
2021/12/17 09:02:48;;;;;;;7.67;5.90;;;;;;;;;;5032510;28;20510;-53
2021/12/17 09:05:14;;;;;;;7.77;6.20;;;;;;;;;;5015449;28;20479;-49
2021/12/17 09:07:45;;;;;;;9.70;6.10;;;;;;;;;;5043037;28;20446;-50
2021/12/17 09:10:21;;;;;;;7.83;6.40;;;;;;;;;;5041824;28;20446;-50
2021/12/17 09:12:47;;;;;;;8.40;6.03;;;;;;;;;;5038170;28;20482;-49
2021/12/17 09:15:14;;;;;;;8.00;5.40;;;;;;;;;;5018344;28;20435;-48
2021/12/17 09:17:40;;;;;;;8.70;6.00;;;;;;;;;;5039536;28;20478;-48
2021/12/17 09:20:07;;;;;;;7.30;6.30;;;;;;;;;;5014325;28;20442;-50
2021/12/17 09:22:34;;;;;;;8.70;6.67;;;;;;;;;;5040703;28;21487;-49
2021/12/17 09:25:00;;;;;;;8.80;6.47;;;;;;;;;;5031657;28;20484;-49
2021/12/17 09:27:26;;;;;;;6.90;5.67;;;;;;;;;;5039313;28;20453;-49
2021/12/17 09:29:52;;;;;;;7.73;5.47;;;;;;;;;;5033705;28;21836;-48
2021/12/17 09:32:18;;;;;;;8.37;5.70;;;;;;;;;;5035147;28;20474;-50
2021/12/17 09:34:44;;;;;;;7.57;6.43;;;;;;;;;;5027234;28;20935;-49
2021/12/17 09:37:13;;;;;;;9.47;6.40;;;;;;;;;;5013933;28;20456;-49
2021/12/17 09:39:39;;;;;;;8.03;4.80;;;;;;;;;;5036649;28;20462;-49
2021/12/17 09:42:27;;;;;;;7.97;6.10;;;;;;;;;;5036867;28;20457;-55
2021/12/17 09:44:54;;;;;;;7.27;5.80;;;;;;;;;;5050936;28;20438;-50
2021/12/17 09:47:33;;;;;;;6.07;4.87;;;;;;;;;;5035942;28;20859;-50
2021/12/17 09:49:59;;;;;;;8.93;5.90;;;;;;;;;;5042075;28;20816;-49
2021/12/17 09:52:25;;;;;;;9.00;5.97;;;;;;;;;;5025833;28;20462;-49
2021/12/17 09:54:52;;;;;;;6.37;4.67;;;;;;;;;;5042108;28;20439;-49
2021/12/17 09:57:20;;;;;;;7.70;5.80;;;;;;;;;;5016492;28;20431;-49
2021/12/17 09:59:50;;;;;;;8.53;6.00;;;;;;;;;;5036755;28;21634;-49
2021/12/17 10:02:16;;;;;;;8.27;6.33;;;;;;;;;;5012122;28;20454;-49
2021/12/17 10:04:54;;;;;;;9.40;6.57;;;;;;;;;;5034021;28;20469;-50
2021/12/17 10:07:25;;;;;;;8.60;6.00;;;;;;;;;;4996860;28;20434;-50
2021/12/17 10:09:55;;;;;;;8.07;5.30;;;;;;;;;;5040918;28;20442;-49
2021/12/17 10:12:27;;;;;;;8.40;5.80;;;;;;;;;;5017269;28;21589;-53
2021/12/17 10:15:04;;;;;;;6.33;5.47;;;;;;;;;;5041503;28;20517;-49
2021/12/17 10:17:30;;;;;;;7.40;6.13;;;;;;;;;;5013850;28;20514;-48
2021/12/17 10:19:56;;;;;;;8.60;5.87;;;;;;;;;;5041368;28;20504;-48
2021/12/17 10:22:23;;;;;;;7.30;5.20;;;;;;;;;;5037354;28;21241;-50
2021/12/17 10:25:08;;;;;;;9.87;6.53;;;;;;;;;;5045332;28;20434;-50
2021/12/17 10:27:35;;;;;;;8.90;6.50;;;;;;;;;;5030067;28;20440;-48
2021/12/17 10:30:27;;;;;;;6.50;5.43;;;;;;;;;;5042571;28;20442;-51
2021/12/17 10:32:55;;;;;;;7.50;5.17;;;;;;;;;;5036753;28;20533;-50
2021/12/17 10:35:24;;;;;;;7.80;5.93;;;;;;;;;;5041598;28;20430;-50
2021/12/17 10:37:55;;;;;;;7.23;5.80;;;;;;;;;;5024927;28;20438;-50
2021/12/17 10:40:34;;;;;;;6.70;4.87;;;;;;;;;;5041991;28;20918;-50
2021/12/17 10:43:05;;;;;;;6.93;6.23;;;;;;;;;;5021569;28;20434;-49
2021/12/17 10:45:33;;;;;;;11.10;6.67;;;;;;;;;;5036968;28;20437;-50
2021/12/17 10:48:22;;;;;;;7.60;5.80;;;;;;;;;;5026139;28;20458;-49
2021/12/17 10:50:52;;;;;;;11.33;6.60;;;;;;;;;;5040308;28;20447;-49
2021/12/17 10:53:22;;;;;;;4.37;3.97;;;;;;;;;;5023470;28;20474;-49
2021/12/17 10:55:48;;;;;;;7.40;5.63;;;;;;;;;;5044572;28;21098;-49
2021/12/17 10:58:15;;;;;;;10.90;7.00;;;;;;;;;;5036935;28;20446;-49
2021/12/17 11:00:54;;;;;;;10.57;6.93;;;;;;;;;;5023034;28;20451;-50
2021/12/17 11:03:20;;;;;;;10.13;7.20;;;;;;;;;;5029326;28;20907;-50
2021/12/17 11:05:46;;;;;;;9.90;6.80;;;;;;;;;;5042311;28;20504;-49
2021/12/17 11:08:28;;;;;;;8.70;6.70;;;;;;;;;;5023460;28;21151;-48
2021/12/17 11:11:00;;;;;;;9.23;7.70;;;;;;;;;;5042290;28;20915;-49
2021/12/17 11:13:27;;;;;;;10.63;8.10;;;;;;;;;;5029324;28;20548;-49
2021/12/17 11:15:53;;;;;;;8.00;7.20;;;;;;;;;;5045302;28;20953;-48
2021/12/17 11:18:20;;;;;;;10.47;7.57;;;;;;;;;;5018395;28;20440;-49
2021/12/17 11:20:47;;;;;;;8.27;7.20;;;;;;;;;;5042448;28;20438;-50
2021/12/17 11:23:15;;;;;;;9.00;7.20;;;;;;;;;;5025451;28;20446;-51
2021/12/17 11:25:42;;;;;;;12.27;6.87;;;;;;;;;;5043452;28;20430;-49
2021/12/17 11:28:11;;;;;;;8.53;7.03;;;;;;;;;;5038691;28;20504;-50
2021/12/17 11:30:47;;;;;;;8.07;6.27;;;;;;;;;;5043351;28;20445;-49
2021/12/17 11:33:13;;;;;;;8.40;6.30;;;;;;;;;;5039681;28;20481;-48
2021/12/17 11:35:42;;;;;;;6.67;5.47;;;;;;;;;;5042270;28;20514;-50
2021/12/17 11:38:18;;;;;;;6.20;5.57;;;;;;;;;;5041125;28;20536;-49
2021/12/17 11:40:53;;;;;;;5.53;4.90;;;;;;;;;;5045085;28;20517;-49
2021/12/17 11:43:37;;;;;;;8.13;6.17;;;;;;;;;;5031617;28;20460;-49
2021/12/17 11:46:15;;;;;;;8.30;5.30;;;;;;;;;;5044667;28;20508;-49
2021/12/17 11:48:50;;;;;;;6.87;5.70;;;;;;;;;;5026340;28;20442;-50
2021/12/17 11:51:46;;;;;;;8.77;6.23;;;;;;;;;;5043642;28;20950;-51
2021/12/17 11:54:25;;;;;;;6.83;5.10;;;;;;;;;;5038930;28;20457;-49
2021/12/17 11:56:53;;;;;;;6.67;4.53;;;;;;;;;;5043983;28;20430;-51
2021/12/17 11:59:26;;;;;;;6.20;4.90;;;;;;;;;;5039689;28;20439;-50
2021/12/17 12:01:57;;;;;;;8.50;6.70;;;;;;;;;;5041389;28;20786;-50
2021/12/17 12:04:33;;;;;;;7.67;5.77;;;;;;;;;;4988044;28;20797;-50
2021/12/17 12:07:00;;;;;;;7.87;6.20;;;;;;;;;;5044089;28;20494;-49
2021/12/17 12:09:45;;;;;;;9.17;6.90;;;;;;;;;;5030080;28;21239;-49
2021/12/17 12:12:12;;;;;;;7.80;5.87;;;;;;;;;;5038368;28;20561;-51
2021/12/17 12:14:39;;;;;;;14.23;6.33;;;;;;;;;;5024987;28;20511;-49
2021/12/17 12:17:07;;;;;;;8.43;5.73;;;;;;;;;;5013884;28;20434;-50
2021/12/17 12:19:51;;;;;;;7.10;6.23;;;;;;;;;;5032641;28;20439;-49
2021/12/17 12:22:31;;;;;;;6.87;5.50;;;;;;;;;;5029254;28;20454;-50
2021/12/17 12:28:00;;;;;;;8.33;6.60;;;;;;;;;;5022910;28;20473;-50
2021/12/17 12:30:39;;;;;;;7.83;6.27;;;;;;;;;;5028483;28;20465;-49
2021/12/17 12:33:06;;;;;;;11.47;6.57;;;;;;;;;;5035496;28;20470;-50
2021/12/17 12:35:32;;;;;;;6.63;5.83;;;;;;;;;;5025726;28;20450;-49
2021/12/17 12:38:32;;;;;;;9.57;5.50;;;;;;;;;;5040990;28;20434;-50
2021/12/17 12:41:00;;;;;;;8.57;5.37;;;;;;;;;;4996210;28;20560;-49
2021/12/17 12:43:27;;;;;;;8.93;6.70;;;;;;;;;;5037267;28;20418;-50
2021/12/17 12:45:55;;;;;;;7.03;5.10;;;;;;;;;;5014978;28;20462;-50
2021/12/17 12:48:28;;;;;;;7.73;5.10;;;;;;;;;;5035583;28;21087;-49
2021/12/17 12:51:13;;;;;;;8.37;6.10;;;;;;;;;;5010914;28;21142;-48
2021/12/17 12:53:41;;;;;;;8.53;5.57;;;;;;;;;;5037776;28;20532;-49
2021/12/17 12:56:08;;;;;;;8.50;4.97;;;;;;;;;;5001078;28;20477;-50
2021/12/17 12:58:37;;;;;;;15.13;6.63;;;;;;;;;;5037809;28;20454;-50
2021/12/17 13:01:03;;;;;;;7.10;5.50;;;;;;;;;;5010283;28;21009;-50
2021/12/17 13:03:31;;;;;;;7.63;5.83;;;;;;;;;;5038634;28;20804;-49
2021/12/17 13:06:19;;;;;;;12.60;7.10;;;;;;;;;;4991188;28;20453;-49
2021/12/17 13:08:55;;;;;;;6.10;5.27;;;;;;;;;;5039638;28;20463;-49
2021/12/17 13:11:22;;;;;;;10.50;6.13;;;;;;;;;;5012240;28;20515;-48
2021/12/17 13:13:54;;;;;;;9.07;5.73;;;;;;;;;;5040956;28;20478;-49
2021/12/17 13:16:34;;;;;;;11.70;6.10;;;;;;;;;;5014415;28;21190;-48
2021/12/17 13:24:27;;;;;;;9.60;7.37;;;;;;;;;;5036466;28;20445;-48
2021/12/17 13:26:53;;;;;;;8.40;7.13;;;;;;;;;;4997423;28;20457;-48
2021/12/17 13:29:21;;;;;;;6.63;5.23;;;;;;;;;;5038194;28;20967;-50
2021/12/17 13:31:50;;;;;;;9.13;6.13;;;;;;;;;;5010596;28;20442;-49
2021/12/17 13:34:16;;;;;;;8.80;6.03;;;;;;;;;;5039764;28;20599;-49
2021/12/17 13:36:44;;;;;;;9.13;5.60;;;;;;;;;;5034409;28;20529;-49
2021/12/17 13:39:11;;;;;;;8.90;5.47;;;;;;;;;;5038100;28;21043;-48
2021/12/17 13:41:37;;;;;;;7.23;5.13;;;;;;;;;;5015440;28;20534;-49
2021/12/17 13:44:03;;;;;;;6.50;4.53;;;;;;;;;;5042621;28;20520;-50
2021/12/17 13:46:29;;;;;;;8.23;5.93;;;;;;;;;;5010835;28;20446;-49
2021/12/17 13:48:55;;;;;;;6.00;4.93;;;;;;;;;;5040583;28;20450;-48
2021/12/17 13:51:21;;;;;;;7.10;6.07;;;;;;;;;;5025912;28;20933;-48
2021/12/17 13:53:48;;;;;;;7.80;6.30;;;;;;;;;;5040801;28;21054;-50
2021/12/17 13:56:17;;;;;;;9.70;5.73;;;;;;;;;;5033574;28;20490;-48
2021/12/17 13:58:43;;;;;;;11.33;7.10;;;;;;;;;;5038085;28;20446;-48
2021/12/17 14:01:19;;;;;;;8.80;6.30;;;;;;;;;;4995988;28;20431;-48
2021/12/17 14:03:45;;;;;;;9.40;7.00;;;;;;;;;;5036427;28;20939;-49
2021/12/17 14:06:24;;;;;;;10.00;7.00;;;;;;;;;;5014732;28;20439;-49
2021/12/17 14:08:53;;;;;;;10.47;8.67;;;;;;;;;;5040307;28;20430;-56
2021/12/17 14:11:25;;;;;;;11.63;8.90;;;;;;;;;;5015107;28;20545;-49
2021/12/17 14:13:51;;;;;;;11.90;8.70;;;;;;;;;;5039360;28;20478;-49
2021/12/17 14:16:28;;;;;;;10.77;7.30;;;;;;;;;;5017109;28;20901;-51
2021/12/17 14:19:01;;;;;;;9.23;6.73;;;;;;;;;;5038745;28;20469;-49
2021/12/17 14:21:31;;;;;;;11.83;8.00;;;;;;;;;;5024827;28;20446;-51
2021/12/17 14:23:58;;;;;;;12.20;9.23;;;;;;;;;;5015231;28;20442;-49
2021/12/17 14:26:31;;;;;;;11.33;8.63;;;;;;;;;;5033772;28;20528;-50
2021/12/17 14:29:07;;;;;;;11.93;9.10;;;;;;;;;;5055717;28;20442;-50
2021/12/17 14:31:36;;;;;;;12.73;8.50;;;;;;;;;;5011659;28;20477;-50
2021/12/17 14:34:02;;;;;;;11.00;8.33;;;;;;;;;;5041809;28;20550;-49
2021/12/17 14:36:28;;;;;;;11.27;8.27;;;;;;;;;;5019285;28;20441;-48
2021/12/17 14:38:59;;;;;;;9.80;7.03;;;;;;;;;;5037581;28;20442;-50
2021/12/17 14:41:31;;;;;;;13.20;9.57;;;;;;;;;;5018913;28;22522;-49
2021/12/17 14:44:06;;;;;;;12.93;8.73;;;;;;;;;;5039976;28;21070;-48
2021/12/17 14:47:06;;;;;;;15.37;9.03;;;;;;;;;;5016421;28;20427;-49
2021/12/17 15:05:42;;;;;;;11.83;8.80;;;;;;;;;;4992738;28;20465;-47
2021/12/17 15:08:08;;;;;;;10.47;8.67;;;;;;;;;;5047735;28;20442;-49
2021/12/17 15:10:35;;;;;;;12.07;9.10;;;;;;;;;;5021994;28;20985;-48
2021/12/17 15:13:01;;;;;;;11.73;9.07;;;;;;;;;;5047474;28;20470;-49
2021/12/17 15:15:28;;;;;;;11.73;9.10;;;;;;;;;;5016133;28;20817;-50
2021/12/17 15:17:55;;;;;;;12.07;9.50;;;;;;;;;;5055231;28;20499;-49
2021/12/17 15:20:25;;;;;;;12.37;8.67;;;;;;;;;;5023817;28;20818;-48
2021/12/17 15:22:51;;;;;;;14.30;10.50;;;;;;;;;;5044863;28;20940;-48
2021/12/17 15:25:17;;;;;;;11.70;8.53;;;;;;;;;;5018111;28;20453;-48
2021/12/17 15:27:43;;;;;;;10.73;9.33;;;;;;;;;;5044296;28;20437;-50
2021/12/17 15:30:20;;;;;;;16.43;8.97;;;;;;;;;;5021359;28;20708;-49
2021/12/17 15:32:46;;;;;;;13.17;8.43;;;;;;;;;;5041551;28;20616;-47
2021/12/17 15:35:12;;;;;;;10.80;9.10;;;;;;;;;;5004409;28;20917;-47
2021/12/17 15:37:39;;;;;;;14.63;8.37;;;;;;;;;;5041042;28;20430;-48
2021/12/17 15:40:05;;;;;;;11.90;8.00;;;;;;;;;;5016039;28;20438;-49
2021/12/17 15:42:31;;;;;;;12.23;10.23;;;;;;;;;;5041206;28;20465;-49
2021/12/17 15:45:07;;;;;;;12.67;8.90;;;;;;;;;;5031249;28;20702;-50
2021/12/17 15:47:33;;;;;;;13.97;10.20;;;;;;;;;;5039241;28;20475;-49
2021/12/17 15:49:59;;;;;;;15.13;8.80;;;;;;;;;;5020829;28;20524;-48
2021/12/17 15:52:25;;;;;;;11.77;8.53;;;;;;;;;;5035973;28;20641;-48
2021/12/17 15:55:12;;;;;;;9.97;8.67;;;;;;;;;;5021983;28;20442;-49
2021/12/17 15:57:38;;;;;;;10.87;7.97;;;;;;;;;;5041750;28;20434;-50
2021/12/17 16:00:08;;;;;;;10.93;8.13;;;;;;;;;;5010065;28;20430;-49
2021/12/17 16:02:34;;;;;;;10.47;8.07;;;;;;;;;;5038993;28;20430;-51
2021/12/17 16:05:01;;;;;;;12.57;8.23;;;;;;;;;;5036059;28;20438;-49
2021/12/17 16:07:27;;;;;;;12.03;8.00;;;;;;;;;;5042472;28;20487;-49
2021/12/17 16:23:09;;;;;;;17.30;7.80;;;;;;;;;;5042068;28;20445;-50
2021/12/17 16:25:53;;;;;;;10.90;9.30;;;;;;;;;;5014938;28;20447;-50
2021/12/17 16:28:19;;;;;;;13.00;9.40;;;;;;;;;;5008031;28;20446;-49
2021/12/17 16:30:47;;;;;;;13.87;9.17;;;;;;;;;;5057302;28;20856;-49
2021/12/17 16:33:13;;;;;;;10.00;8.23;;;;;;;;;;5030076;28;20536;-50
2021/12/17 16:35:40;;;;;;;10.50;8.80;;;;;;;;;;5050937;28;20441;-49
2021/12/17 16:38:09;;;;;;;14.60;8.27;;;;;;;;;;5042029;28;21003;-50
2021/12/17 16:40:35;;;;;;;10.87;8.87;;;;;;;;;;5042661;28;20438;-49
2021/12/17 16:43:01;;;;;;;13.30;10.30;;;;;;;;;;5016609;28;20466;-48
2021/12/17 16:45:33;;;;;;;13.53;9.23;;;;;;;;;;5042687;28;20440;-48
2021/12/17 16:48:03;;;;;;;11.53;8.23;;;;;;;;;;5022723;28;20438;-50
2021/12/17 16:50:29;;;;;;;11.57;8.10;;;;;;;;;;5038057;28;20446;-50
2021/12/17 16:52:58;;;;;;;11.33;8.53;;;;;;;;;;5038599;28;20478;-50
2021/12/17 16:55:31;;;;;;;9.47;8.17;;;;;;;;;;5017778;28;20446;-50
2021/12/17 16:57:58;;;;;;;12.23;8.70;;;;;;;;;;5039687;28;20947;-50
2021/12/17 17:00:24;;;;;;;11.37;9.27;;;;;;;;;;4980390;28;20436;-50
2021/12/17 17:02:53;;;;;;;10.97;8.50;;;;;;;;;;5041579;28;20907;-49
2021/12/17 17:05:20;;;;;;;17.17;9.97;;;;;;;;;;5021797;28;20967;-50
2021/12/17 17:07:47;;;;;;;11.20;9.17;;;;;;;;;;5043258;28;20430;-50
2021/12/17 17:10:14;;;;;;;11.70;10.00;;;;;;;;;;5036841;28;20947;-50
2021/12/17 17:12:43;;;;;;;14.37;9.03;;;;;;;;;;5041117;28;20925;-49
2021/12/17 17:15:09;;;;;;;12.80;9.40;;;;;;;;;;5020082;28;20435;-49
2021/12/17 17:17:35;;;;;;;11.60;9.07;;;;;;;;;;5043673;28;20447;-49
2021/12/17 17:20:01;;;;;;;10.87;8.17;;;;;;;;;;5017143;28;20455;-50
2021/12/17 17:22:27;;;;;;;11.47;8.47;;;;;;;;;;5040598;28;20506;-49
2021/12/17 17:24:57;;;;;;;14.63;8.90;;;;;;;;;;5040033;28;20924;-50
2021/12/17 17:27:30;;;;;;;13.30;9.00;;;;;;;;;;5042762;28;20527;-50
2021/12/17 17:29:56;;;;;;;14.50;8.60;;;;;;;;;;5035818;28;20455;-49
2021/12/17 17:35:26;;;;;;;11.67;9.30;;;;;;;;;;5010571;28;20448;-49
2021/12/17 17:37:57;;;;;;;11.50;8.60;;;;;;;;;;5028127;28;21241;-49
2021/12/17 17:40:23;;;;;;;14.80;9.17;;;;;;;;;;5038032;28;21327;-48
2021/12/17 17:42:50;;;;;;;11.27;8.90;;;;;;;;;;5029975;28;20777;-49
2021/12/17 17:45:16;;;;;;;13.80;9.47;;;;;;;;;;5038430;28;20474;-50
2021/12/17 17:48:05;;;;;;;12.67;9.23;;;;;;;;;;5027931;28;21070;-49
2021/12/17 17:50:32;;;;;;;13.40;9.80;;;;;;;;;;5037161;28;20445;-51
2021/12/17 17:53:12;;;;;;;13.03;8.50;;;;;;;;;;5027820;28;20518;-50
2021/12/17 17:55:41;;;;;;;13.37;9.60;;;;;;;;;;5037484;28;20434;-50
2021/12/17 17:58:08;;;;;;;12.30;9.80;;;;;;;;;;5033285;28;20442;-50
2021/12/17 18:00:34;;;;;;;15.63;10.30;;;;;;;;;;5037256;28;20438;-50
2021/12/17 18:03:35;;;;;;;14.43;8.83;;;;;;;;;;5023442;28;22073;-51
2021/12/17 18:06:11;;;;;;;12.23;8.57;;;;;;;;;;5034659;28;20447;-48
2021/12/17 18:08:38;;;;;;;13.30;10.40;;;;;;;;;;5015324;28;20435;-47
2021/12/17 18:11:04;;;;;;;14.53;10.10;;;;;;;;;;5037133;28;20496;-50